sensor_id;sensor_type;location;lat;lon;timestamp;P1;durP1;ratioP1;P2;durP2;ratioP2
75634;SDS011;64227;48.724;9.104;2023-03-14T00:01:43;0.60;;;0.43;;
75634;SDS011;64227;48.724;9.104;2023-03-14T00:04:09;0.50;;;0.20;;
75634;SDS011;64227;48.724;9.104;2023-03-14T00:06:35;0.28;;;0.25;;
75634;SDS011;64227;48.724;9.104;2023-03-14T00:09:00;2.22;;;0.65;;
75634;SDS011;64227;48.724;9.104;2023-03-14T00:11:25;1.95;;;0.38;;
75634;SDS011;64227;48.724;9.104;2023-03-14T00:13:51;0.82;;;0.38;;
75634;SDS011;64227;48.724;9.104;2023-03-14T00:16:17;1.10;;;0.50;;
75634;SDS011;64227;48.724;9.104;2023-03-14T00:18:43;1.40;;;0.47;;
75634;SDS011;64227;48.724;9.104;2023-03-14T00:21:09;1.25;;;0.52;;
75634;SDS011;64227;48.724;9.104;2023-03-14T00:23:35;1.02;;;0.43;;
75634;SDS011;64227;48.724;9.104;2023-03-14T00:26:03;2.50;;;1.27;;
75634;SDS011;64227;48.724;9.104;2023-03-14T00:28:35;0.82;;;0.40;;
75634;SDS011;64227;48.724;9.104;2023-03-14T00:31:08;2.22;;;0.50;;
75634;SDS011;64227;48.724;9.104;2023-03-14T00:33:36;1.02;;;0.30;;
75634;SDS011;64227;48.724;9.104;2023-03-14T00:36:05;1.58;;;0.40;;
75634;SDS011;64227;48.724;9.104;2023-03-14T00:38:33;0.60;;;0.30;;
75634;SDS011;64227;48.724;9.104;2023-03-14T00:40:59;0.30;;;0.30;;
75634;SDS011;64227;48.724;9.104;2023-03-14T00:45:53;0.40;;;0.30;;
75634;SDS011;64227;48.724;9.104;2023-03-14T00:48:19;0.40;;;0.40;;
75634;SDS011;64227;48.724;9.104;2023-03-14T00:50:45;0.43;;;0.30;;
75634;SDS011;64227;48.724;9.104;2023-03-14T00:53:10;1.60;;;0.30;;
75634;SDS011;64227;48.724;9.104;2023-03-14T00:55:36;0.20;;;0.20;;
75634;SDS011;64227;48.724;9.104;2023-03-14T00:58:02;0.20;;;0.20;;
75634;SDS011;64227;48.724;9.104;2023-03-14T01:00:28;0.30;;;0.20;;
75634;SDS011;64227;48.724;9.104;2023-03-14T01:02:53;0.30;;;0.30;;
75634;SDS011;64227;48.724;9.104;2023-03-14T01:05:18;0.25;;;0.17;;
75634;SDS011;64227;48.724;9.104;2023-03-14T01:07:44;0.10;;;0.10;;
75634;SDS011;64227;48.724;9.104;2023-03-14T01:10:09;0.30;;;0.30;;
75634;SDS011;64227;48.724;9.104;2023-03-14T01:12:35;0.20;;;0.20;;
75634;SDS011;64227;48.724;9.104;2023-03-14T01:15:00;0.30;;;0.10;;
75634;SDS011;64227;48.724;9.104;2023-03-14T01:17:25;1.60;;;0.10;;
75634;SDS011;64227;48.724;9.104;2023-03-14T01:19:51;0.20;;;0.20;;
75634;SDS011;64227;48.724;9.104;2023-03-14T01:22:16;1.08;;;0.20;;
75634;SDS011;64227;48.724;9.104;2023-03-14T01:24:41;0.57;;;0.17;;
75634;SDS011;64227;48.724;9.104;2023-03-14T01:27:07;0.28;;;0.20;;
75634;SDS011;64227;48.724;9.104;2023-03-14T01:29:32;0.10;;;0.10;;
75634;SDS011;64227;48.724;9.104;2023-03-14T01:31:57;0.20;;;0.10;;
75634;SDS011;64227;48.724;9.104;2023-03-14T01:34:23;0.22;;;0.20;;
75634;SDS011;64227;48.724;9.104;2023-03-14T01:36:48;0.65;;;0.22;;
75634;SDS011;64227;48.724;9.104;2023-03-14T01:39:13;0.15;;;0.15;;
75634;SDS011;64227;48.724;9.104;2023-03-14T01:41:39;0.57;;;0.17;;
75634;SDS011;64227;48.724;9.104;2023-03-14T01:44:05;0.60;;;0.30;;
75634;SDS011;64227;48.724;9.104;2023-03-14T01:56:55;0.80;;;0.30;;
75634;SDS011;64227;48.724;9.104;2023-03-14T01:59:23;0.17;;;0.13;;
75634;SDS011;64227;48.724;9.104;2023-03-14T02:01:49;1.27;;;0.30;;
75634;SDS011;64227;48.724;9.104;2023-03-14T02:04:16;0.80;;;0.32;;
75634;SDS011;64227;48.724;9.104;2023-03-14T02:06:44;0.80;;;0.40;;
75634;SDS011;64227;48.724;9.104;2023-03-14T02:09:14;0.40;;;0.30;;
75634;SDS011;64227;48.724;9.104;2023-03-14T02:11:39;0.40;;;0.20;;
75634;SDS011;64227;48.724;9.104;2023-03-14T02:14:05;0.63;;;0.20;;
75634;SDS011;64227;48.724;9.104;2023-03-14T02:16:30;0.47;;;0.30;;
75634;SDS011;64227;48.724;9.104;2023-03-14T02:18:56;0.93;;;0.40;;
75634;SDS011;64227;48.724;9.104;2023-03-14T02:21:23;0.25;;;0.25;;
75634;SDS011;64227;48.724;9.104;2023-03-14T02:26:38;0.10;;;0.10;;
75634;SDS011;64227;48.724;9.104;2023-03-14T02:29:05;0.40;;;0.20;;
75634;SDS011;64227;48.724;9.104;2023-03-14T02:31:31;0.30;;;0.20;;
75634;SDS011;64227;48.724;9.104;2023-03-14T02:33:57;0.65;;;0.20;;
75634;SDS011;64227;48.724;9.104;2023-03-14T02:36:23;0.57;;;0.20;;
75634;SDS011;64227;48.724;9.104;2023-03-14T02:39:05;0.20;;;0.17;;
75634;SDS011;64227;48.724;9.104;2023-03-14T02:41:33;0.25;;;0.20;;
75634;SDS011;64227;48.724;9.104;2023-03-14T02:43:59;0.20;;;0.20;;
75634;SDS011;64227;48.724;9.104;2023-03-14T02:46:24;0.20;;;0.20;;
75634;SDS011;64227;48.724;9.104;2023-03-14T02:48:51;0.15;;;0.15;;
75634;SDS011;64227;48.724;9.104;2023-03-14T02:51:19;1.88;;;0.10;;
75634;SDS011;64227;48.724;9.104;2023-03-14T02:53:48;0.50;;;0.50;;
75634;SDS011;64227;48.724;9.104;2023-03-14T02:56:13;1.30;;;0.20;;
75634;SDS011;64227;48.724;9.104;2023-03-14T02:58:38;1.55;;;0.38;;
75634;SDS011;64227;48.724;9.104;2023-03-14T03:01:04;2.38;;;0.20;;
75634;SDS011;64227;48.724;9.104;2023-03-14T03:03:30;0.20;;;0.20;;
75634;SDS011;64227;48.724;9.104;2023-03-14T03:05:55;1.80;;;0.28;;
75634;SDS011;64227;48.724;9.104;2023-03-14T03:08:22;1.25;;;0.30;;
75634;SDS011;64227;48.724;9.104;2023-03-14T03:10:48;1.27;;;0.20;;
75634;SDS011;64227;48.724;9.104;2023-03-14T03:13:14;0.10;;;0.10;;
75634;SDS011;64227;48.724;9.104;2023-03-14T03:15:40;0.80;;;0.30;;
75634;SDS011;64227;48.724;9.104;2023-03-14T03:18:05;1.10;;;0.40;;
75634;SDS011;64227;48.724;9.104;2023-03-14T03:20:31;0.40;;;0.30;;
75634;SDS011;64227;48.724;9.104;2023-03-14T03:22:56;0.70;;;0.30;;
75634;SDS011;64227;48.724;9.104;2023-03-14T03:25:23;0.43;;;0.30;;
75634;SDS011;64227;48.724;9.104;2023-03-14T03:27:49;1.08;;;0.30;;
75634;SDS011;64227;48.724;9.104;2023-03-14T03:30:14;0.93;;;0.22;;
75634;SDS011;64227;48.724;9.104;2023-03-14T03:32:39;0.38;;;0.30;;
75634;SDS011;64227;48.724;9.104;2023-03-14T03:35:05;1.50;;;0.50;;
75634;SDS011;64227;48.724;9.104;2023-03-14T03:37:31;2.00;;;0.40;;
75634;SDS011;64227;48.724;9.104;2023-03-14T03:39:57;0.70;;;0.45;;
75634;SDS011;64227;48.724;9.104;2023-03-14T03:42:22;2.25;;;0.45;;
75634;SDS011;64227;48.724;9.104;2023-03-14T03:44:47;2.30;;;0.30;;
75634;SDS011;64227;48.724;9.104;2023-03-14T03:47:13;1.48;;;0.35;;
75634;SDS011;64227;48.724;9.104;2023-03-14T03:49:38;0.88;;;0.50;;
75634;SDS011;64227;48.724;9.104;2023-03-14T03:52:04;1.40;;;0.47;;
75634;SDS011;64227;48.724;9.104;2023-03-14T03:54:29;4.32;;;0.70;;
75634;SDS011;64227;48.724;9.104;2023-03-14T03:56:54;1.85;;;0.40;;
75634;SDS011;64227;48.724;9.104;2023-03-14T03:59:20;2.63;;;0.68;;
75634;SDS011;64227;48.724;9.104;2023-03-14T04:01:46;1.92;;;0.40;;
75634;SDS011;64227;48.724;9.104;2023-03-14T04:04:19;1.20;;;0.40;;
75634;SDS011;64227;48.724;9.104;2023-03-14T04:06:44;2.03;;;0.60;;
75634;SDS011;64227;48.724;9.104;2023-03-14T04:09:10;2.85;;;0.50;;
75634;SDS011;64227;48.724;9.104;2023-03-14T04:11:36;3.42;;;0.50;;
75634;SDS011;64227;48.724;9.104;2023-03-14T04:14:01;2.03;;;0.30;;
75634;SDS011;64227;48.724;9.104;2023-03-14T04:16:26;2.97;;;0.68;;
75634;SDS011;64227;48.724;9.104;2023-03-14T04:18:52;3.17;;;0.52;;
75634;SDS011;64227;48.724;9.104;2023-03-14T04:21:17;1.13;;;0.40;;
75634;SDS011;64227;48.724;9.104;2023-03-14T04:23:43;2.67;;;0.28;;
75634;SDS011;64227;48.724;9.104;2023-03-14T04:26:08;4.20;;;0.60;;
75634;SDS011;64227;48.724;9.104;2023-03-14T04:28:34;1.10;;;0.45;;
75634;SDS011;64227;48.724;9.104;2023-03-14T04:31:12;3.25;;;0.52;;
75634;SDS011;64227;48.724;9.104;2023-03-14T04:33:42;5.43;;;0.57;;
75634;SDS011;64227;48.724;9.104;2023-03-14T04:36:07;1.17;;;0.40;;
75634;SDS011;64227;48.724;9.104;2023-03-14T04:38:33;1.80;;;0.25;;
75634;SDS011;64227;48.724;9.104;2023-03-14T04:40:59;2.38;;;0.47;;
75634;SDS011;64227;48.724;9.104;2023-03-14T04:43:25;1.95;;;1.00;;
75634;SDS011;64227;48.724;9.104;2023-03-14T04:45:51;2.20;;;0.40;;
75634;SDS011;64227;48.724;9.104;2023-03-14T04:50:46;0.70;;;0.40;;
75634;SDS011;64227;48.724;9.104;2023-03-14T04:53:12;1.08;;;0.30;;
75634;SDS011;64227;48.724;9.104;2023-03-14T04:55:37;0.82;;;0.30;;
75634;SDS011;64227;48.724;9.104;2023-03-14T04:58:03;3.75;;;0.65;;
75634;SDS011;64227;48.724;9.104;2023-03-14T05:00:28;2.20;;;0.40;;
75634;SDS011;64227;48.724;9.104;2023-03-14T05:02:53;4.22;;;0.73;;
75634;SDS011;64227;48.724;9.104;2023-03-14T05:05:19;3.70;;;0.80;;
75634;SDS011;64227;48.724;9.104;2023-03-14T05:07:44;2.30;;;0.98;;
75634;SDS011;64227;48.724;9.104;2023-03-14T05:10:10;4.53;;;1.17;;
75634;SDS011;64227;48.724;9.104;2023-03-14T05:12:35;3.13;;;0.70;;
75634;SDS011;64227;48.724;9.104;2023-03-14T05:15:00;0.45;;;0.40;;
75634;SDS011;64227;48.724;9.104;2023-03-14T05:17:26;1.25;;;0.50;;
75634;SDS011;64227;48.724;9.104;2023-03-14T05:19:51;2.92;;;0.38;;
75634;SDS011;64227;48.724;9.104;2023-03-14T05:22:16;0.63;;;0.33;;
75634;SDS011;64227;48.724;9.104;2023-03-14T05:24:42;0.60;;;0.30;;
75634;SDS011;64227;48.724;9.104;2023-03-14T05:27:07;0.73;;;0.22;;
75634;SDS011;64227;48.724;9.104;2023-03-14T05:29:32;0.50;;;0.32;;
75634;SDS011;64227;48.724;9.104;2023-03-14T05:31:57;1.33;;;0.30;;
75634;SDS011;64227;48.724;9.104;2023-03-14T05:34:23;2.35;;;0.50;;
75634;SDS011;64227;48.724;9.104;2023-03-14T05:36:48;2.60;;;0.70;;
75634;SDS011;64227;48.724;9.104;2023-03-14T05:39:13;2.92;;;0.63;;
75634;SDS011;64227;48.724;9.104;2023-03-14T05:41:39;0.47;;;0.40;;
75634;SDS011;64227;48.724;9.104;2023-03-14T05:44:04;1.02;;;0.40;;
75634;SDS011;64227;48.724;9.104;2023-03-14T05:46:29;1.25;;;0.60;;
75634;SDS011;64227;48.724;9.104;2023-03-14T05:48:55;0.70;;;0.32;;
75634;SDS011;64227;48.724;9.104;2023-03-14T05:51:21;4.75;;;0.50;;
75634;SDS011;64227;48.724;9.104;2023-03-14T05:53:47;2.45;;;1.13;;
75634;SDS011;64227;48.724;9.104;2023-03-14T05:56:16;3.22;;;0.40;;
75634;SDS011;64227;48.724;9.104;2023-03-14T05:58:41;2.30;;;0.40;;
75634;SDS011;64227;48.724;9.104;2023-03-14T06:01:06;0.68;;;0.32;;
75634;SDS011;64227;48.724;9.104;2023-03-14T06:03:33;1.30;;;0.32;;
75634;SDS011;64227;48.724;9.104;2023-03-14T06:05:58;1.15;;;0.28;;
75634;SDS011;64227;48.724;9.104;2023-03-14T06:08:24;2.47;;;0.50;;
75634;SDS011;64227;48.724;9.104;2023-03-14T06:10:49;4.32;;;0.57;;
75634;SDS011;64227;48.724;9.104;2023-03-14T06:13:15;0.63;;;0.50;;
75634;SDS011;64227;48.724;9.104;2023-03-14T06:15:41;1.55;;;0.40;;
75634;SDS011;64227;48.724;9.104;2023-03-14T06:18:07;1.00;;;0.50;;
75634;SDS011;64227;48.724;9.104;2023-03-14T06:20:32;1.60;;;0.30;;
75634;SDS011;64227;48.724;9.104;2023-03-14T06:22:58;1.77;;;0.40;;
75634;SDS011;64227;48.724;9.104;2023-03-14T06:25:23;1.73;;;0.47;;
75634;SDS011;64227;48.724;9.104;2023-03-14T06:27:49;1.38;;;0.50;;
75634;SDS011;64227;48.724;9.104;2023-03-14T06:30:25;2.50;;;0.30;;
75634;SDS011;64227;48.724;9.104;2023-03-14T06:32:50;2.25;;;0.40;;
75634;SDS011;64227;48.724;9.104;2023-03-14T06:35:16;3.08;;;0.10;;
75634;SDS011;64227;48.724;9.104;2023-03-14T06:37:41;0.43;;;0.15;;
75634;SDS011;64227;48.724;9.104;2023-03-14T06:40:07;2.20;;;0.40;;
75634;SDS011;64227;48.724;9.104;2023-03-14T06:42:33;1.77;;;0.35;;
75634;SDS011;64227;48.724;9.104;2023-03-14T06:44:59;3.60;;;0.30;;
75634;SDS011;64227;48.724;9.104;2023-03-14T06:47:24;3.95;;;0.47;;
75634;SDS011;64227;48.724;9.104;2023-03-14T06:49:49;3.13;;;0.60;;
75634;SDS011;64227;48.724;9.104;2023-03-14T06:52:14;0.60;;;0.20;;
75634;SDS011;64227;48.724;9.104;2023-03-14T06:54:40;1.95;;;0.20;;
75634;SDS011;64227;48.724;9.104;2023-03-14T06:57:05;2.05;;;0.35;;
75634;SDS011;64227;48.724;9.104;2023-03-14T06:59:30;1.38;;;0.30;;
75634;SDS011;64227;48.724;9.104;2023-03-14T07:01:56;2.95;;;0.50;;
75634;SDS011;64227;48.724;9.104;2023-03-14T07:04:21;0.52;;;0.28;;
75634;SDS011;64227;48.724;9.104;2023-03-14T07:06:46;0.50;;;0.27;;
75634;SDS011;64227;48.724;9.104;2023-03-14T07:09:12;4.28;;;0.85;;
75634;SDS011;64227;48.724;9.104;2023-03-14T07:11:38;3.60;;;0.52;;
75634;SDS011;64227;48.724;9.104;2023-03-14T07:14:03;2.92;;;0.57;;
75634;SDS011;64227;48.724;9.104;2023-03-14T07:16:29;0.70;;;0.30;;
75634;SDS011;64227;48.724;9.104;2023-03-14T07:18:57;1.15;;;0.50;;
75634;SDS011;64227;48.724;9.104;2023-03-14T07:21:23;2.30;;;0.38;;
75634;SDS011;64227;48.724;9.104;2023-03-14T07:23:48;0.65;;;0.30;;
75634;SDS011;64227;48.724;9.104;2023-03-14T07:26:13;1.17;;;0.70;;
75634;SDS011;64227;48.724;9.104;2023-03-14T07:28:39;1.35;;;0.93;;
75634;SDS011;64227;48.724;9.104;2023-03-14T07:31:04;6.80;;;0.90;;
75634;SDS011;64227;48.724;9.104;2023-03-14T07:33:30;1.45;;;1.10;;
75634;SDS011;64227;48.724;9.104;2023-03-14T07:35:55;1.80;;;0.98;;
75634;SDS011;64227;48.724;9.104;2023-03-14T07:38:20;2.15;;;0.90;;
75634;SDS011;64227;48.724;9.104;2023-03-14T07:40:46;4.65;;;1.25;;
75634;SDS011;64227;48.724;9.104;2023-03-14T07:43:11;2.97;;;1.42;;
75634;SDS011;64227;48.724;9.104;2023-03-14T07:45:36;2.60;;;0.80;;
75634;SDS011;64227;48.724;9.104;2023-03-14T07:48:01;1.25;;;0.60;;
75634;SDS011;64227;48.724;9.104;2023-03-14T07:50:27;2.22;;;0.30;;
75634;SDS011;64227;48.724;9.104;2023-03-14T07:52:53;0.68;;;0.22;;
75634;SDS011;64227;48.724;9.104;2023-03-14T07:55:19;1.55;;;0.25;;
75634;SDS011;64227;48.724;9.104;2023-03-14T07:57:44;1.83;;;0.30;;
75634;SDS011;64227;48.724;9.104;2023-03-14T08:00:10;0.20;;;0.20;;
75634;SDS011;64227;48.724;9.104;2023-03-14T08:02:36;1.75;;;0.20;;
75634;SDS011;64227;48.724;9.104;2023-03-14T08:05:02;0.47;;;0.20;;
75634;SDS011;64227;48.724;9.104;2023-03-14T08:07:28;0.20;;;0.10;;
75634;SDS011;64227;48.724;9.104;2023-03-14T08:09:53;3.50;;;0.32;;
75634;SDS011;64227;48.724;9.104;2023-03-14T08:12:19;0.50;;;0.20;;
75634;SDS011;64227;48.724;9.104;2023-03-14T08:14:44;0.20;;;0.17;;
75634;SDS011;64227;48.724;9.104;2023-03-14T08:17:09;2.25;;;0.30;;
75634;SDS011;64227;48.724;9.104;2023-03-14T08:19:35;0.55;;;0.20;;
75634;SDS011;64227;48.724;9.104;2023-03-14T08:22:00;1.90;;;0.20;;
75634;SDS011;64227;48.724;9.104;2023-03-14T08:24:25;0.15;;;0.10;;
75634;SDS011;64227;48.724;9.104;2023-03-14T08:26:51;0.65;;;0.25;;
75634;SDS011;64227;48.724;9.104;2023-03-14T08:29:16;0.20;;;0.20;;
75634;SDS011;64227;48.724;9.104;2023-03-14T08:31:41;0.17;;;0.08;;
75634;SDS011;64227;48.724;9.104;2023-03-14T08:34:07;0.10;;;0.10;;
75634;SDS011;64227;48.724;9.104;2023-03-14T08:36:32;0.30;;;0.30;;
75634;SDS011;64227;48.724;9.104;2023-03-14T08:38:58;0.38;;;0.13;;
75634;SDS011;64227;48.724;9.104;2023-03-14T08:41:23;0.47;;;0.17;;
75634;SDS011;64227;48.724;9.104;2023-03-14T08:43:49;0.52;;;0.20;;
75634;SDS011;64227;48.724;9.104;2023-03-14T08:46:14;1.92;;;0.22;;
75634;SDS011;64227;48.724;9.104;2023-03-14T08:48:39;1.23;;;0.20;;
75634;SDS011;64227;48.724;9.104;2023-03-14T08:51:06;0.15;;;0.10;;
75634;SDS011;64227;48.724;9.104;2023-03-14T08:53:32;0.10;;;0.10;;
75634;SDS011;64227;48.724;9.104;2023-03-14T08:55:57;0.00;;;0.00;;
75634;SDS011;64227;48.724;9.104;2023-03-14T08:58:22;0.10;;;0.10;;
75634;SDS011;64227;48.724;9.104;2023-03-14T09:00:48;0.52;;;0.20;;
75634;SDS011;64227;48.724;9.104;2023-03-14T09:03:14;0.20;;;0.13;;
75634;SDS011;64227;48.724;9.104;2023-03-14T09:05:39;1.75;;;0.10;;
75634;SDS011;64227;48.724;9.104;2023-03-14T09:08:05;0.22;;;0.10;;
75634;SDS011;64227;48.724;9.104;2023-03-14T09:10:30;0.32;;;0.03;;
75634;SDS011;64227;48.724;9.104;2023-03-14T09:12:55;0.47;;;0.13;;
75634;SDS011;64227;48.724;9.104;2023-03-14T09:15:22;1.48;;;0.13;;
75634;SDS011;64227;48.724;9.104;2023-03-14T09:17:47;0.03;;;0.00;;
75634;SDS011;64227;48.724;9.104;2023-03-14T09:20:13;0.10;;;0.10;;
75634;SDS011;64227;48.724;9.104;2023-03-14T09:22:39;0.38;;;0.20;;
75634;SDS011;64227;48.724;9.104;2023-03-14T09:25:04;0.52;;;0.15;;
75634;SDS011;64227;48.724;9.104;2023-03-14T09:27:30;0.52;;;0.05;;
75634;SDS011;64227;48.724;9.104;2023-03-14T09:29:55;0.63;;;0.17;;
75634;SDS011;64227;48.724;9.104;2023-03-14T09:32:21;1.15;;;0.10;;
75634;SDS011;64227;48.724;9.104;2023-03-14T09:34:46;0.20;;;0.10;;
75634;SDS011;64227;48.724;9.104;2023-03-14T09:37:11;0.20;;;0.10;;
75634;SDS011;64227;48.724;9.104;2023-03-14T09:39:37;0.35;;;0.10;;
75634;SDS011;64227;48.724;9.104;2023-03-14T09:42:03;0.00;;;0.00;;
75634;SDS011;64227;48.724;9.104;2023-03-14T09:44:31;0.17;;;0.10;;
75634;SDS011;64227;48.724;9.104;2023-03-14T09:47:00;0.60;;;0.10;;
75634;SDS011;64227;48.724;9.104;2023-03-14T09:49:31;1.02;;;0.10;;
75634;SDS011;64227;48.724;9.104;2023-03-14T09:51:59;1.55;;;0.13;;
75634;SDS011;64227;48.724;9.104;2023-03-14T09:54:36;0.20;;;0.00;;
75634;SDS011;64227;48.724;9.104;2023-03-14T09:57:04;0.17;;;0.10;;
75634;SDS011;64227;48.724;9.104;2023-03-14T09:59:30;1.10;;;0.10;;
75634;SDS011;64227;48.724;9.104;2023-03-14T10:02:11;0.30;;;0.20;;
75634;SDS011;64227;48.724;9.104;2023-03-14T10:04:40;0.15;;;0.10;;
75634;SDS011;64227;48.724;9.104;2023-03-14T10:09:44;0.25;;;0.05;;
75634;SDS011;64227;48.724;9.104;2023-03-14T10:12:10;1.17;;;0.22;;
75634;SDS011;64227;48.724;9.104;2023-03-14T10:14:37;0.35;;;0.10;;
75634;SDS011;64227;48.724;9.104;2023-03-14T10:17:10;0.13;;;0.13;;
75634;SDS011;64227;48.724;9.104;2023-03-14T10:19:37;0.10;;;0.10;;
75634;SDS011;64227;48.724;9.104;2023-03-14T10:22:16;0.88;;;0.15;;
75634;SDS011;64227;48.724;9.104;2023-03-14T10:24:45;0.20;;;0.10;;
75634;SDS011;64227;48.724;9.104;2023-03-14T10:27:18;0.10;;;0.10;;
75634;SDS011;64227;48.724;9.104;2023-03-14T10:29:52;0.20;;;0.20;;
75634;SDS011;64227;48.724;9.104;2023-03-14T10:32:33;0.20;;;0.10;;
75634;SDS011;64227;48.724;9.104;2023-03-14T10:35:04;0.10;;;0.10;;
75634;SDS011;64227;48.724;9.104;2023-03-14T10:37:31;0.20;;;0.10;;
75634;SDS011;64227;48.724;9.104;2023-03-14T10:40:00;0.38;;;0.10;;
75634;SDS011;64227;48.724;9.104;2023-03-14T10:42:30;0.13;;;0.10;;
75634;SDS011;64227;48.724;9.104;2023-03-14T10:45:00;0.20;;;0.20;;
75634;SDS011;64227;48.724;9.104;2023-03-14T10:47:27;0.10;;;0.08;;
75634;SDS011;64227;48.724;9.104;2023-03-14T10:49:53;0.10;;;0.00;;
75634;SDS011;64227;48.724;9.104;2023-03-14T10:54:48;1.10;;;0.15;;
75634;SDS011;64227;48.724;9.104;2023-03-14T10:57:19;0.00;;;0.00;;
75634;SDS011;64227;48.724;9.104;2023-03-14T10:59:45;0.10;;;0.03;;
75634;SDS011;64227;48.724;9.104;2023-03-14T11:07:43;0.30;;;0.20;;
75634;SDS011;64227;48.724;9.104;2023-03-14T11:10:14;1.48;;;0.20;;
75634;SDS011;64227;48.724;9.104;2023-03-14T11:15:41;1.20;;;0.10;;
75634;SDS011;64227;48.724;9.104;2023-03-14T11:29:39;1.05;;;0.10;;
75634;SDS011;64227;48.724;9.104;2023-03-14T11:32:12;2.17;;;0.22;;
75634;SDS011;64227;48.724;9.104;2023-03-14T11:34:50;0.15;;;0.08;;
75634;SDS011;64227;48.724;9.104;2023-03-14T11:37:33;1.73;;;0.10;;
75634;SDS011;64227;48.724;9.104;2023-03-14T11:40:04;0.40;;;0.03;;
75634;SDS011;64227;48.724;9.104;2023-03-14T11:42:34;1.45;;;0.20;;
75634;SDS011;64227;48.724;9.104;2023-03-14T11:45:00;0.10;;;0.10;;
75634;SDS011;64227;48.724;9.104;2023-03-14T11:47:30;1.42;;;0.08;;
75634;SDS011;64227;48.724;9.104;2023-03-14T11:50:00;0.10;;;0.10;;
75634;SDS011;64227;48.724;9.104;2023-03-14T11:52:29;0.30;;;0.10;;
75634;SDS011;64227;48.724;9.104;2023-03-14T11:57:34;0.40;;;0.13;;
75634;SDS011;64227;48.724;9.104;2023-03-14T12:02:40;0.10;;;0.10;;
75634;SDS011;64227;48.724;9.104;2023-03-14T12:05:38;0.00;;;0.00;;
75634;SDS011;64227;48.724;9.104;2023-03-14T12:08:39;0.15;;;0.10;;
75634;SDS011;64227;48.724;9.104;2023-03-14T12:14:22;0.10;;;0.10;;
75634;SDS011;64227;48.724;9.104;2023-03-14T12:16:52;0.08;;;0.00;;
75634;SDS011;64227;48.724;9.104;2023-03-14T12:21:49;0.10;;;0.10;;
75634;SDS011;64227;48.724;9.104;2023-03-14T12:26:50;0.63;;;0.10;;
75634;SDS011;64227;48.724;9.104;2023-03-14T12:29:20;0.10;;;0.00;;
75634;SDS011;64227;48.724;9.104;2023-03-14T12:31:56;1.02;;;0.10;;
75634;SDS011;64227;48.724;9.104;2023-03-14T12:34:32;0.70;;;0.10;;
75634;SDS011;64227;48.724;9.104;2023-03-14T12:37:01;0.25;;;0.15;;
75634;SDS011;64227;48.724;9.104;2023-03-14T12:45:14;0.20;;;0.20;;
75634;SDS011;64227;48.724;9.104;2023-03-14T12:50:35;0.20;;;0.20;;
75634;SDS011;64227;48.724;9.104;2023-03-14T12:58:39;0.93;;;0.30;;
75634;SDS011;64227;48.724;9.104;2023-03-14T13:01:14;0.20;;;0.10;;
75634;SDS011;64227;48.724;9.104;2023-03-14T13:03:51;1.58;;;0.30;;
75634;SDS011;64227;48.724;9.104;2023-03-14T13:06:44;0.52;;;0.30;;
75634;SDS011;64227;48.724;9.104;2023-03-14T13:11:55;2.15;;;0.60;;
75634;SDS011;64227;48.724;9.104;2023-03-14T13:14:25;0.68;;;0.30;;
75634;SDS011;64227;48.724;9.104;2023-03-14T13:16:53;0.47;;;0.20;;
75634;SDS011;64227;48.724;9.104;2023-03-14T13:19:19;2.17;;;0.50;;
75634;SDS011;64227;48.724;9.104;2023-03-14T13:21:46;2.28;;;0.43;;
75634;SDS011;64227;48.724;9.104;2023-03-14T13:24:20;1.00;;;0.30;;
75634;SDS011;64227;48.724;9.104;2023-03-14T13:26:48;1.88;;;0.40;;
75634;SDS011;64227;48.724;9.104;2023-03-14T13:29:31;0.80;;;0.30;;
75634;SDS011;64227;48.724;9.104;2023-03-14T13:32:21;1.08;;;0.32;;
75634;SDS011;64227;48.724;9.104;2023-03-14T13:34:58;1.30;;;0.28;;
75634;SDS011;64227;48.724;9.104;2023-03-14T13:37:26;1.65;;;0.47;;
75634;SDS011;64227;48.724;9.104;2023-03-14T13:39:56;0.25;;;0.20;;
75634;SDS011;64227;48.724;9.104;2023-03-14T13:42:26;1.05;;;0.40;;
75634;SDS011;64227;48.724;9.104;2023-03-14T13:44:53;0.45;;;0.20;;
75634;SDS011;64227;48.724;9.104;2023-03-14T13:47:20;1.02;;;0.40;;
75634;SDS011;64227;48.724;9.104;2023-03-14T13:49:46;0.82;;;0.50;;
75634;SDS011;64227;48.724;9.104;2023-03-14T13:52:47;0.65;;;0.28;;
75634;SDS011;64227;48.724;9.104;2023-03-14T13:55:13;2.60;;;0.30;;
75634;SDS011;64227;48.724;9.104;2023-03-14T13:57:47;2.00;;;0.20;;
75634;SDS011;64227;48.724;9.104;2023-03-14T14:00:19;2.50;;;0.30;;
75634;SDS011;64227;48.724;9.104;2023-03-14T14:02:51;0.10;;;0.10;;
75634;SDS011;64227;48.724;9.104;2023-03-14T14:05:18;1.67;;;0.30;;
75634;SDS011;64227;48.724;9.104;2023-03-14T14:07:43;1.02;;;0.30;;
75634;SDS011;64227;48.724;9.104;2023-03-14T14:10:12;0.82;;;0.20;;
75634;SDS011;64227;48.724;9.104;2023-03-14T14:12:39;1.38;;;0.38;;
75634;SDS011;64227;48.724;9.104;2023-03-14T14:15:23;0.30;;;0.20;;
75634;SDS011;64227;48.724;9.104;2023-03-14T14:17:52;0.50;;;0.20;;
75634;SDS011;64227;48.724;9.104;2023-03-14T14:22:59;0.15;;;0.13;;
75634;SDS011;64227;48.724;9.104;2023-03-14T14:25:26;0.22;;;0.20;;
75634;SDS011;64227;48.724;9.104;2023-03-14T14:28:13;1.85;;;0.20;;
75634;SDS011;64227;48.724;9.104;2023-03-14T14:30:43;0.95;;;0.40;;
75634;SDS011;64227;48.724;9.104;2023-03-14T14:33:19;1.65;;;0.22;;
75634;SDS011;64227;48.724;9.104;2023-03-14T14:35:53;1.77;;;0.30;;
75634;SDS011;64227;48.724;9.104;2023-03-14T14:39:00;1.30;;;0.20;;
75634;SDS011;64227;48.724;9.104;2023-03-14T14:41:33;3.80;;;0.45;;
75634;SDS011;64227;48.724;9.104;2023-03-14T14:44:00;1.23;;;0.68;;
75634;SDS011;64227;48.724;9.104;2023-03-14T14:46:29;1.10;;;0.20;;
75634;SDS011;64227;48.724;9.104;2023-03-14T14:48:56;1.02;;;0.15;;
75634;SDS011;64227;48.724;9.104;2023-03-14T14:51:24;0.77;;;0.20;;
75634;SDS011;64227;48.724;9.104;2023-03-14T14:53:59;1.88;;;0.30;;
75634;SDS011;64227;48.724;9.104;2023-03-14T14:56:28;0.65;;;0.30;;
75634;SDS011;64227;48.724;9.104;2023-03-14T14:59:00;0.60;;;0.28;;
75634;SDS011;64227;48.724;9.104;2023-03-14T15:01:32;0.57;;;0.20;;
75634;SDS011;64227;48.724;9.104;2023-03-14T15:03:59;2.03;;;0.30;;
75634;SDS011;64227;48.724;9.104;2023-03-14T15:06:30;1.90;;;0.45;;
75634;SDS011;64227;48.724;9.104;2023-03-14T15:08:57;0.55;;;0.38;;
75634;SDS011;64227;48.724;9.104;2023-03-14T15:11:24;0.43;;;0.20;;
75634;SDS011;64227;48.724;9.104;2023-03-14T15:13:51;1.52;;;0.40;;
75634;SDS011;64227;48.724;9.104;2023-03-14T15:16:17;3.55;;;0.38;;
75634;SDS011;64227;48.724;9.104;2023-03-14T15:18:45;1.60;;;0.20;;
75634;SDS011;64227;48.724;9.104;2023-03-14T15:21:13;2.05;;;0.30;;
75634;SDS011;64227;48.724;9.104;2023-03-14T15:23:38;1.00;;;0.20;;
75634;SDS011;64227;48.724;9.104;2023-03-14T15:26:08;1.17;;;0.30;;
75634;SDS011;64227;48.724;9.104;2023-03-14T15:28:36;3.70;;;0.30;;
75634;SDS011;64227;48.724;9.104;2023-03-14T15:31:02;1.15;;;0.30;;
75634;SDS011;64227;48.724;9.104;2023-03-14T15:33:27;0.90;;;0.30;;
75634;SDS011;64227;48.724;9.104;2023-03-14T15:35:53;1.33;;;0.30;;
75634;SDS011;64227;48.724;9.104;2023-03-14T15:38:19;4.00;;;0.88;;
75634;SDS011;64227;48.724;9.104;2023-03-14T15:40:47;1.17;;;0.57;;
75634;SDS011;64227;48.724;9.104;2023-03-14T15:43:14;0.77;;;0.30;;
75634;SDS011;64227;48.724;9.104;2023-03-14T15:45:39;1.38;;;0.20;;
75634;SDS011;64227;48.724;9.104;2023-03-14T15:48:06;2.22;;;0.30;;
75634;SDS011;64227;48.724;9.104;2023-03-14T15:50:32;0.95;;;0.40;;
75634;SDS011;64227;48.724;9.104;2023-03-14T15:52:59;0.68;;;0.40;;
75634;SDS011;64227;48.724;9.104;2023-03-14T15:55:24;0.85;;;0.40;;
75634;SDS011;64227;48.724;9.104;2023-03-14T15:58:47;2.67;;;0.45;;
75634;SDS011;64227;48.724;9.104;2023-03-14T16:01:13;1.58;;;0.20;;
75634;SDS011;64227;48.724;9.104;2023-03-14T16:03:40;2.13;;;0.32;;
75634;SDS011;64227;48.724;9.104;2023-03-14T16:06:08;4.25;;;0.43;;
75634;SDS011;64227;48.724;9.104;2023-03-14T16:08:34;1.98;;;0.40;;